EVRA/RIX METAR and TAF weather

Enter ICAO airport designator
Station Type Date Time Source
EVRA METAR 2018/07/21 11:50 UTC NOAA

EVRA 211150Z 23006KT 180V290 9999 SCT049 28/15 Q1006 NOSIG


Station Type Date Time Source
EVRA Decoded METAR 2018/07/21 11:50 UTC NOAA

Riga International Airport, Latvia (EVRA) 56-55N 023-58E
Jul 21, 2018 - 07:50 AM EDT / 2018.07.21 1150 UTC
Wind: from the SW (230 degrees) at 7 MPH (6 KT) (direction variable):0
Visibility: greater than 7 mile(s):0
Sky conditions: partly cloudy
Temperature: 82 F (28 C)
Dew Point: 59 F (15 C)
Relative Humidity: 45%
Pressure (altimeter): 29.71 in. Hg (1006 hPa)
ob: EVRA 211150Z 23006KT 180V290 9999 SCT049 28/15 Q1006 NOSIG
cycle: 12

Station Type Date Time Source
EVRA TAF 2018/07/21 12:03 UTC NOAA

TAF TAF EVRA 211101Z 2112/2212 27005KT 9999 SCT040
BECMG 2121/2122 3000 MIFG BR SCT003
TEMPO 2122/2205 0500 FG BKN002
BECMG 2205/2207 8000 NSW


Example: see airport list